Nachod, Czech Republic
Current Conditions -  °F | °C
As of 1:00 PM on Friday 24 Oct 2014 (Local Time) from LKPD Reporting Station
Overcast Overcast  
Wind Chill: 46°   Ceiling: 4600
Heat Index: 48°   Visibility: 6mi
Dew Point: 41°   Wind: 6mph
Humidity: 76%   Direction: 30°NNE
Pressure: 30.24"   Gusts: NA
Location:  50.42°N, 16.17°E
Report Text: LKPD 241100Z 03005KT 340V090 9999 SCT019 OVC046 09/05 Q1024 NOSIG
Loading
Personal Weather Stations






























Interactive Weather Map
Tropical Storm Tracking
New forecast layout! Learn more

10-Day Weather Forecast

Advertisements
Track Severe Weather on mobile